Time;durP1;ratioP1;P1;durP2;ratioP2;P2;SDS_P1;SDS_P2;PMS_P1;PMS_P2;Temp;Humidity;BMP_temperature;BMP_pressure;BME280_temperature;BME280_humidity;BME280_pressure;Samples;Min_cycle;Max_cycle;Signal;HPM_P1;HPM_P2
2020/12/16 00:00:44;;;;;;;;;;;;;;;;;;5015960;28;896;-86
2020/12/16 00:03:09;;;;;;;;;;;;;;;;;;5014729;28;1457;-83
2020/12/16 00:05:34;;;;;;;;;;;;;;;;;;5016016;28;838;-86
2020/12/16 00:08:00;;;;;;;;;;;;;;;;;;5015995;28;873;-85
2020/12/16 00:10:25;;;;;;;;;;;;;;;;;;5014609;28;1197;-87
2020/12/16 00:12:50;;;;;;;;;;;;;;;;;;5014326;28;1301;-84
2020/12/16 00:15:15;;;;;;;;;;;;;;;;;;5014306;28;1894;-86
2020/12/16 00:17:41;;;;;;;;;;;;;;;;;;5015910;28;794;-85
2020/12/16 00:20:07;;;;;;;;;;;;;;;;;;5014339;28;1329;-83
2020/12/16 00:22:39;;;;;;;;;;;;;;;;;;5014297;28;1432;-86
2020/12/16 00:25:04;;;;;;;;;;;;;;;;;;5015740;28;834;-85
2020/12/16 00:27:30;;;;;;;;;;;;;;;;;;5016904;28;1019;-83
2020/12/16 00:30:00;;;;;;;;;;;;;;;;;;5014345;28;913;-86
2020/12/16 00:32:25;;;;;;;;;;;;;;;;;;5016061;28;1287;-85
2020/12/16 00:34:50;;;;;;;;;;;;;;;;;;5014183;28;1961;-85
2020/12/16 00:37:16;;;;;;;;;;;;;;;;;;5015460;28;822;-84
2020/12/16 00:39:41;;;;;;;;;;;;;;;;;;5013845;28;1192;-84
2020/12/16 00:42:07;;;;;;;;;;;;;;;;;;5013716;28;1740;-84
2020/12/16 00:44:32;;;;;;;;;;;;;;;;;;5014420;28;1229;-85
2020/12/16 00:46:58;;;;;;;;;;;;;;;;;;5015584;28;886;-86
2020/12/16 00:49:23;;;;;;;;;;;;;;;;;;5015742;28;842;-84
2020/12/16 00:51:50;;;;;;;;;;;;;;;;;;5014251;28;1388;-86
2020/12/16 00:54:15;;;;;;;;;;;;;;;;;;5014923;28;1893;-86
2020/12/16 00:56:42;;;;;;;;;;;;;;;;;;5014600;28;1313;-84
2020/12/16 00:59:07;;;;;;;;;;;;;;;;;;5014271;28;943;-85
2020/12/16 01:01:32;;;;;;;;;;;;;;;;;;5015361;28;1286;-86
2020/12/16 01:03:58;;;;;;;;;;;;;;;;;;5014154;28;1472;-84
2020/12/16 01:06:23;;;;;;;;;;;;;;;;;;5014587;28;937;-86
2020/12/16 01:08:48;;;;;;;;;;;;;;;;;;5014680;28;1200;-84
2020/12/16 01:11:13;;;;;;;;;;;;;;;;;;5015135;28;1336;-86
2020/12/16 01:13:39;;;;;;;;;;;;;;;;;;5014194;28;870;-84
2020/12/16 01:16:04;;;;;;;;;;;;;;;;;;5014855;28;1867;-85
2020/12/16 01:18:29;;;;;;;;;;;;;;;;;;5015979;28;972;-86
2020/12/16 01:20:54;;;;;;;;;;;;;;;;;;5013460;28;1473;-84
2020/12/16 01:23:20;;;;;;;;;;;;;;;;;;5014919;28;1375;-83
2020/12/16 01:25:45;;;;;;;;;;;;;;;;;;5023587;28;1278;-85
2020/12/16 01:28:10;;;;;;;;;;;;;;;;;;5030362;28;1216;-85
2020/12/16 01:30:35;;;;;;;;;;;;;;;;;;5049656;28;1207;-84
2020/12/16 01:33:01;;;;;;;;;;;;;;;;;;5034440;28;1342;-84
2020/12/16 01:35:26;;;;;;;;;;;;;;;;;;5034223;28;1878;-84
2020/12/16 01:37:52;;;;;;;;;;;;;;;;;;5033035;28;1288;-86
2020/12/16 01:40:17;;;;;;;;;;;;;;;;;;5034010;28;818;-84
2020/12/16 01:42:43;;;;;;;;;;;;;;;;;;5033281;28;1434;-85
2020/12/16 01:45:12;;;;;;;;;;;;;;;;;;5034491;28;897;-85
2020/12/16 01:47:38;;;;;;;;;;;;;;;;;;5034293;28;840;-86
2020/12/16 01:50:05;;;;;;;;;;;;;;;;;;5032853;28;1411;-85
2020/12/16 01:52:30;;;;;;;;;;;;;;;;;;5032962;28;1324;-86
2020/12/16 01:54:57;;;;;;;;;;;;;;;;;;5034469;28;1890;-83
2020/12/16 01:57:23;;;;;;;;;;;;;;;;;;5021291;28;1405;-86
2020/12/16 01:59:49;;;;;;;;;;;;;;;;;;5017123;28;1283;-85
2020/12/16 02:02:16;;;;;;;;;;;;;;;;;;5014267;28;1322;-85
2020/12/16 02:04:43;;;;;;;;;;;;;;;;;;5014412;28;817;-85
2020/12/16 02:07:10;;;;;;;;;;;;;;;;;;5014507;28;963;-86
2020/12/16 02:09:46;;;;;;;;;;;;;;;;;;5014100;28;901;-84
2020/12/16 02:12:12;;;;;;;;;;;;;;;;;;5013354;28;1350;-86
2020/12/16 02:14:37;;;;;;;;;;;;;;;;;;5014346;28;1886;-85
2020/12/16 02:17:03;;;;;;;;;;;;;;;;;;5014216;28;897;-84
2020/12/16 02:19:32;;;;;;;;;;;;;;;;;;5013032;28;1563;-85
2020/12/16 02:21:58;;;;;;;;;;;;;;;;;;5013219;28;1306;-85
2020/12/16 02:24:25;;;;;;;;;;;;;;;;;;5013582;28;1388;-84
2020/12/16 02:26:50;;;;;;;;;;;;;;;;;;5013696;28;1469;-85
2020/12/16 02:29:15;;;;;;;;;;;;;;;;;;5016851;28;1353;-85
2020/12/16 02:31:42;;;;;;;;;;;;;;;;;;5016273;28;1376;-84
2020/12/16 02:34:08;;;;;;;;;;;;;;;;;;5017804;28;1000;-83
2020/12/16 02:36:33;;;;;;;;;;;;;;;;;;5016222;28;1894;-84
2020/12/16 02:38:58;;;;;;;;;;;;;;;;;;5016726;28;1220;-84
2020/12/16 02:41:24;;;;;;;;;;;;;;;;;;5017324;28;1287;-83
2020/12/16 02:43:50;;;;;;;;;;;;;;;;;;5017600;28;838;-84
2020/12/16 02:46:16;;;;;;;;;;;;;;;;;;5017551;28;853;-85
2020/12/16 02:48:41;;;;;;;;;;;;;;;;;;5016362;28;1338;-84
2020/12/16 02:51:07;;;;;;;;;;;;;;;;;;5016232;28;953;-84
2020/12/16 02:53:32;;;;;;;;;;;;;;;;;;5017285;28;1318;-83
2020/12/16 02:55:57;;;;;;;;;;;;;;;;;;5017550;28;1890;-83
2020/12/16 02:58:23;;;;;;;;;;;;;;;;;;5017224;28;837;-84
2020/12/16 03:00:49;;;;;;;;;;;;;;;;;;5015776;28;1274;-83
2020/12/16 03:03:14;;;;;;;;;;;;;;;;;;5016151;28;1376;-83
2020/12/16 03:05:39;;;;;;;;;;;;;;;;;;5015855;28;846;-84
2020/12/16 03:08:07;;;;;;;;;;;;;;;;;;5016115;28;814;-82
2020/12/16 03:10:34;;;;;;;;;;;;;;;;;;5016805;28;842;-84
2020/12/16 03:12:59;;;;;;;;;;;;;;;;;;5017178;28;1331;-83
2020/12/16 03:15:24;;;;;;;;;;;;;;;;;;5015568;28;1907;-84
2020/12/16 03:17:49;;;;;;;;;;;;;;;;;;5016153;28;1413;-84
2020/12/16 03:20:15;;;;;;;;;;;;;;;;;;5016494;28;873;-85
2020/12/16 03:22:40;;;;;;;;;;;;;;;;;;5015396;28;1364;-82
2020/12/16 03:25:05;;;;;;;;;;;;;;;;;;5016731;28;945;-85
2020/12/16 03:27:30;;;;;;;;;;;;;;;;;;5015458;28;1586;-84
2020/12/16 03:29:56;;;;;;;;;;;;;;;;;;5015492;28;1445;-84
2020/12/16 03:32:21;;;;;;;;;;;;;;;;;;5015305;28;1393;-85
2020/12/16 03:34:46;;;;;;;;;;;;;;;;;;5015404;28;1965;-84
2020/12/16 03:37:11;;;;;;;;;;;;;;;;;;5015254;28;1155;-84
2020/12/16 03:39:36;;;;;;;;;;;;;;;;;;5015113;28;1704;-83
2020/12/16 03:42:02;;;;;;;;;;;;;;;;;;5015565;28;1324;-84
2020/12/16 03:44:27;;;;;;;;;;;;;;;;;;5015121;28;878;-82
2020/12/16 03:46:52;;;;;;;;;;;;;;;;;;5014997;28;976;-83
2020/12/16 03:49:18;;;;;;;;;;;;;;;;;;5016180;28;818;-83
2020/12/16 03:51:44;;;;;;;;;;;;;;;;;;5015072;28;1296;-83
2020/12/16 03:54:09;;;;;;;;;;;;;;;;;;5015199;28;881;-83
2020/12/16 03:56:35;;;;;;;;;;;;;;;;;;5014824;28;1977;-84
2020/12/16 03:59:00;;;;;;;;;;;;;;;;;;5015169;28;1137;-84
2020/12/16 04:01:25;;;;;;;;;;;;;;;;;;5015761;28;1322;-84
2020/12/16 04:03:50;;;;;;;;;;;;;;;;;;5014757;28;1431;-83
2020/12/16 04:06:16;;;;;;;;;;;;;;;;;;5014902;28;1009;-85
2020/12/16 04:08:42;;;;;;;;;;;;;;;;;;5014705;28;909;-83
2020/12/16 04:11:09;;;;;;;;;;;;;;;;;;5014490;28;1274;-85
2020/12/16 04:13:35;;;;;;;;;;;;;;;;;;5015931;28;952;-83
2020/12/16 04:16:01;;;;;;;;;;;;;;;;;;5015726;28;1907;-83
2020/12/16 04:18:26;;;;;;;;;;;;;;;;;;5014803;28;906;-85
2020/12/16 04:20:51;;;;;;;;;;;;;;;;;;5014140;28;1213;-86
2020/12/16 04:23:16;;;;;;;;;;;;;;;;;;5015955;28;1413;-85
2020/12/16 04:25:42;;;;;;;;;;;;;;;;;;5015828;28;808;-84
2020/12/16 04:28:07;;;;;;;;;;;;;;;;;;5014631;28;1143;-83
2020/12/16 04:30:32;;;;;;;;;;;;;;;;;;5015454;28;817;-84
2020/12/16 04:32:59;;;;;;;;;;;;;;;;;;5015555;28;1262;-84
2020/12/16 04:35:25;;;;;;;;;;;;;;;;;;5014386;28;1949;-84
2020/12/16 04:37:51;;;;;;;;;;;;;;;;;;5015476;28;822;-84
2020/12/16 04:40:17;;;;;;;;;;;;;;;;;;5015231;28;853;-82
2020/12/16 04:42:42;;;;;;;;;;;;;;;;;;5014001;28;1367;-85
2020/12/16 04:45:08;;;;;;;;;;;;;;;;;;5014130;28;1505;-83
2020/12/16 04:47:34;;;;;;;;;;;;;;;;;;5014016;28;1218;-82
2020/12/16 04:49:59;;;;;;;;;;;;;;;;;;5014281;28;841;-84
2020/12/16 04:52:26;;;;;;;;;;;;;;;;;;5015163;28;1414;-83
2020/12/16 04:54:52;;;;;;;;;;;;;;;;;;5015099;28;1894;-84
2020/12/16 04:57:17;;;;;;;;;;;;;;;;;;5014142;28;1103;-82
2020/12/16 04:59:43;;;;;;;;;;;;;;;;;;5013549;28;1416;-83
2020/12/16 05:02:08;;;;;;;;;;;;;;;;;;5015082;28;1407;-83
2020/12/16 05:04:33;;;;;;;;;;;;;;;;;;5013970;28;1331;-83
2020/12/16 05:06:59;;;;;;;;;;;;;;;;;;5014033;28;1272;-82
2020/12/16 05:09:24;;;;;;;;;;;;;;;;;;5014956;28;822;-82
2020/12/16 05:11:50;;;;;;;;;;;;;;;;;;5013657;28;1289;-84
2020/12/16 05:14:18;;;;;;;;;;;;;;;;;;5013628;28;1464;-83
2020/12/16 05:17:03;;;;;;;;;;;;;;;;;;5014858;28;865;-83
2020/12/16 05:19:33;;;;;;;;;;;;;;;;;;5013605;28;885;-84
2020/12/16 05:22:17;;;;;;;;;;;;;;;;;;5013318;28;1314;-83
2020/12/16 05:24:46;;;;;;;;;;;;;;;;;;5014773;28;873;-83
2020/12/16 05:27:24;;;;;;;;;;;;;;;;;;5014801;28;799;-84
2020/12/16 05:29:50;;;;;;;;;;;;;;;;;;5014804;28;900;-83
2020/12/16 05:32:16;;;;;;;;;;;;;;;;;;5015057;28;1392;-83
2020/12/16 05:34:42;;;;;;;;;;;;;;;;;;5013355;28;1883;-83
2020/12/16 05:37:40;;;;;;;;;;;;;;;;;;5014725;28;810;-82
2020/12/16 05:40:10;;;;;;;;;;;;;;;;;;4981095;28;1331;-82
2020/12/16 05:42:36;;;;;;;;;;;;;;;;;;5014552;28;1417;-82
2020/12/16 05:45:12;;;;;;;;;;;;;;;;;;5014752;28;822;-82
2020/12/16 05:47:39;;;;;;;;;;;;;;;;;;5013420;28;892;-82
2020/12/16 05:50:15;;;;;;;;;;;;;;;;;;5013139;28;893;-84
2020/12/16 05:52:40;;;;;;;;;;;;;;;;;;5014738;28;1305;-82
2020/12/16 05:55:05;;;;;;;;;;;;;;;;;;5013140;28;2276;-82
2020/12/16 05:57:31;;;;;;;;;;;;;;;;;;5013483;28;1121;-82
2020/12/16 06:00:01;;;;;;;;;;;;;;;;;;5013195;28;950;-83
2020/12/16 06:02:32;;;;;;;;;;;;;;;;;;5016437;28;1285;-83
2020/12/16 06:04:58;;;;;;;;;;;;;;;;;;5017265;28;794;-82
2020/12/16 06:07:23;;;;;;;;;;;;;;;;;;5016940;28;892;-83
2020/12/16 06:09:51;;;;;;;;;;;;;;;;;;5016756;28;846;-83
2020/12/16 06:12:17;;;;;;;;;;;;;;;;;;5017277;28;1411;-83
2020/12/16 06:14:43;;;;;;;;;;;;;;;;;;5016692;28;1957;-84
2020/12/16 06:17:09;;;;;;;;;;;;;;;;;;5018120;28;869;-82
2020/12/16 06:19:35;;;;;;;;;;;;;;;;;;5017728;28;825;-82
2020/12/16 06:22:06;;;;;;;;;;;;;;;;;;5017830;28;1404;-83
2020/12/16 06:24:38;;;;;;;;;;;;;;;;;;5016681;28;1180;-83
2020/12/16 06:27:07;;;;;;;;;;;;;;;;;;5016895;28;1283;-82
2020/12/16 06:29:35;;;;;;;;;;;;;;;;;;5017808;28;810;-82
2020/12/16 06:32:06;;;;;;;;;;;;;;;;;;5017717;28;1293;-82
2020/12/16 06:34:34;;;;;;;;;;;;;;;;;;5016656;28;1902;-83
2020/12/16 06:36:59;;;;;;;;;;;;;;;;;;5017747;28;928;-84
2020/12/16 06:39:24;;;;;;;;;;;;;;;;;;5016640;28;842;-84
2020/12/16 06:41:54;;;;;;;;;;;;;;;;;;5016140;28;2329;-84
2020/12/16 06:44:20;;;;;;;;;;;;;;;;;;5016139;28;1463;-83
2020/12/16 06:46:46;;;;;;;;;;;;;;;;;;5017412;28;953;-83
2020/12/16 06:49:15;;;;;;;;;;;;;;;;;;5016177;28;1474;-83
2020/12/16 06:51:41;;;;;;;;;;;;;;;;;;5015919;28;1355;-83
2020/12/16 06:54:08;;;;;;;;;;;;;;;;;;5016165;28;1004;-84
2020/12/16 06:56:34;;;;;;;;;;;;;;;;;;5017261;28;1910;-83
2020/12/16 06:58:59;;;;;;;;;;;;;;;;;;5016155;28;1279;-83
2020/12/16 07:01:25;;;;;;;;;;;;;;;;;;5015911;28;1392;-83
2020/12/16 07:03:50;;;;;;;;;;;;;;;;;;5015908;28;1348;-83
2020/12/16 07:06:28;;;;;;;;;;;;;;;;;;5015831;28;1216;-83
2020/12/16 07:09:12;;;;;;;;;;;;;;;;;;5017040;28;791;-83
2020/12/16 07:11:41;;;;;;;;;;;;;;;;;;5016713;28;1377;-82
2020/12/16 07:14:13;;;;;;;;;;;;;;;;;;5016224;28;904;-83
2020/12/16 07:16:39;;;;;;;;;;;;;;;;;;5016914;28;1951;-83
2020/12/16 07:19:04;;;;;;;;;;;;;;;;;;5015681;28;1222;-83
2020/12/16 07:21:31;;;;;;;;;;;;;;;;;;5015321;28;1344;-84
2020/12/16 07:23:56;;;;;;;;;;;;;;;;;;5015504;28;1204;-84
2020/12/16 07:26:22;;;;;;;;;;;;;;;;;;5015331;28;1494;-84
2020/12/16 07:28:47;;;;;;;;;;;;;;;;;;5015439;28;1463;-83
2020/12/16 07:31:12;;;;;;;;;;;;;;;;;;5016338;28;1375;-82
2020/12/16 07:33:38;;;;;;;;;;;;;;;;;;5016639;28;798;-82
2020/12/16 07:36:04;;;;;;;;;;;;;;;;;;5016348;28;1940;-83
2020/12/16 07:38:29;;;;;;;;;;;;;;;;;;5016523;28;814;-82
2020/12/16 07:40:55;;;;;;;;;;;;;;;;;;5015007;28;1495;-84
2020/12/16 07:43:21;;;;;;;;;;;;;;;;;;5015154;28;1397;-82
2020/12/16 07:46:02;;;;;;;;;;;;;;;;;;5015153;28;1319;-83
2020/12/16 07:48:27;;;;;;;;;;;;;;;;;;5016391;28;924;-83
2020/12/16 07:51:19;;;;;;;;;;;;;;;;;;5016172;28;825;-83
2020/12/16 07:53:46;;;;;;;;;;;;;;;;;;5014228;28;1246;-83
2020/12/16 07:56:11;;;;;;;;;;;;;;;;;;5014887;28;1894;-84
2020/12/16 07:58:36;;;;;;;;;;;;;;;;;;5016102;28;849;-83
2020/12/16 08:01:12;;;;;;;;;;;;;;;;;;5014756;28;889;-83
2020/12/16 08:03:38;;;;;;;;;;;;;;;;;;5014862;28;834;-84
2020/12/16 08:06:04;;;;;;;;;;;;;;;;;;5014748;28;1352;-83
2020/12/16 08:08:29;;;;;;;;;;;;;;;;;;5014771;28;1629;-83
2020/12/16 08:10:55;;;;;;;;;;;;;;;;;;5015246;28;1448;-83
2020/12/16 08:13:21;;;;;;;;;;;;;;;;;;5015815;28;1433;-83
2020/12/16 08:15:46;;;;;;;;;;;;;;;;;;5014500;28;1886;-83
2020/12/16 08:18:14;;;;;;;;;;;;;;;;;;5014393;28;1336;-83
2020/12/16 08:20:41;;;;;;;;;;;;;;;;;;5014349;28;908;-83
2020/12/16 08:23:10;;;;;;;;;;;;;;;;;;5015675;28;1325;-82
2020/12/16 08:25:36;;;;;;;;;;;;;;;;;;5014847;28;893;-83
2020/12/16 08:28:04;;;;;;;;;;;;;;;;;;5015606;28;894;-83
2020/12/16 08:30:30;;;;;;;;;;;;;;;;;;5015454;28;910;-83
2020/12/16 08:32:58;;;;;;;;;;;;;;;;;;5014116;28;1365;-82
2020/12/16 08:35:27;;;;;;;;;;;;;;;;;;5014188;28;1890;-83
2020/12/16 08:37:54;;;;;;;;;;;;;;;;;;5014562;28;929;-82
2020/12/16 08:40:20;;;;;;;;;;;;;;;;;;5014027;28;1479;-83
2020/12/16 08:42:45;;;;;;;;;;;;;;;;;;5014179;28;1307;-84
2020/12/16 08:45:11;;;;;;;;;;;;;;;;;;5014021;28;908;-84
2020/12/16 08:47:36;;;;;;;;;;;;;;;;;;5014312;28;782;-84
2020/12/16 08:50:05;;;;;;;;;;;;;;;;;;5015082;28;806;-84
2020/12/16 08:52:41;;;;;;;;;;;;;;;;;;5015199;28;1297;-84
2020/12/16 08:55:11;;;;;;;;;;;;;;;;;;5013799;28;1957;-84
2020/12/16 08:57:36;;;;;;;;;;;;;;;;;;5014330;28;1535;-83
2020/12/16 09:00:10;;;;;;;;;;;;;;;;;;5013568;28;850;-83
2020/12/16 09:02:35;;;;;;;;;;;;;;;;;;5015068;28;1417;-84
2020/12/16 09:05:00;;;;;;;;;;;;;;;;;;5013902;28;1349;-83
2020/12/16 09:07:26;;;;;;;;;;;;;;;;;;5014022;28;1228;-84
2020/12/16 09:09:54;;;;;;;;;;;;;;;;;;5014863;28;830;-83
2020/12/16 09:12:20;;;;;;;;;;;;;;;;;;5013593;28;1301;-84
2020/12/16 09:14:49;;;;;;;;;;;;;;;;;;5013800;28;1902;-84
2020/12/16 09:17:14;;;;;;;;;;;;;;;;;;5013728;28;1515;-84
2020/12/16 09:19:39;;;;;;;;;;;;;;;;;;5014838;28;849;-83
2020/12/16 09:22:05;;;;;;;;;;;;;;;;;;5013970;28;1404;-83
2020/12/16 09:24:32;;;;;;;;;;;;;;;;;;5013595;28;1344;-84
2020/12/16 09:26:59;;;;;;;;;;;;;;;;;;5013458;28;1382;-83
2020/12/16 09:29:29;;;;;;;;;;;;;;;;;;5014944;28;880;-84
2020/12/16 09:32:16;;;;;;;;;;;;;;;;;;5015131;28;1404;-84
2020/12/16 09:34:43;;;;;;;;;;;;;;;;;;5013996;28;1946;-82
2020/12/16 09:37:11;;;;;;;;;;;;;;;;;;5018891;28;924;-83
2020/12/16 09:39:36;;;;;;;;;;;;;;;;;;5018684;28;869;-83
2020/12/16 09:42:06;;;;;;;;;;;;;;;;;;5019237;28;1428;-83
2020/12/16 09:44:33;;;;;;;;;;;;;;;;;;5018994;28;1008;-84
2020/12/16 09:47:12;;;;;;;;;;;;;;;;;;5017697;28;849;-84
2020/12/16 09:49:38;;;;;;;;;;;;;;;;;;5017903;28;858;-83
2020/12/16 09:52:03;;;;;;;;;;;;;;;;;;5017471;28;1283;-85
2020/12/16 09:54:29;;;;;;;;;;;;;;;;;;5017884;28;1886;-84
2020/12/16 09:57:04;;;;;;;;;;;;;;;;;;5017556;28;1338;-81
2020/12/16 09:59:30;;;;;;;;;;;;;;;;;;5036591;28;1620;-84
2020/12/16 10:01:55;;;;;;;;;;;;;;;;;;5028322;28;1404;-82
2020/12/16 10:04:20;;;;;;;;;;;;;;;;;;5018760;28;803;-82
2020/12/16 10:06:45;;;;;;;;;;;;;;;;;;5018882;28;850;-82
2020/12/16 10:09:11;;;;;;;;;;;;;;;;;;5017637;28;1150;-83
2020/12/16 10:11:37;;;;;;;;;;;;;;;;;;5018945;28;1277;-83
2020/12/16 10:14:02;;;;;;;;;;;;;;;;;;5018909;28;838;-83
2020/12/16 10:16:31;;;;;;;;;;;;;;;;;;5017185;28;1890;-82
2020/12/16 10:18:57;;;;;;;;;;;;;;;;;;5019558;28;1642;-82
2020/12/16 10:21:22;;;;;;;;;;;;;;;;;;5018112;28;2340;-82
2020/12/16 10:23:47;;;;;;;;;;;;;;;;;;5016979;28;1049;-84
2020/12/16 10:26:12;;;;;;;;;;;;;;;;;;5016585;28;1279;-85
2020/12/16 10:28:38;;;;;;;;;;;;;;;;;;5016619;28;890;-81
2020/12/16 10:31:03;;;;;;;;;;;;;;;;;;5016441;28;1263;-82
2020/12/16 10:33:28;;;;;;;;;;;;;;;;;;5016458;28;1419;-82
2020/12/16 10:35:53;;;;;;;;;;;;;;;;;;5016303;28;1890;-82
2020/12/16 10:38:19;;;;;;;;;;;;;;;;;;5017676;28;1044;-83
2020/12/16 10:40:44;;;;;;;;;;;;;;;;;;5017469;28;954;-82
2020/12/16 10:43:10;;;;;;;;;;;;;;;;;;5017906;28;1373;-82
2020/12/16 10:45:35;;;;;;;;;;;;;;;;;;5017509;28;913;-81
2020/12/16 10:48:00;;;;;;;;;;;;;;;;;;5015481;28;1473;-81
2020/12/16 10:50:30;;;;;;;;;;;;;;;;;;5017180;28;890;-82
2020/12/16 10:52:55;;;;;;;;;;;;;;;;;;5017588;28;1289;-82
2020/12/16 10:55:21;;;;;;;;;;;;;;;;;;5017284;28;1882;-82
2020/12/16 10:57:46;;;;;;;;;;;;;;;;;;5017319;28;850;-83
2020/12/16 11:00:11;;;;;;;;;;;;;;;;;;5017366;28;934;-81
2020/12/16 11:02:37;;;;;;;;;;;;;;;;;;5017103;28;1380;-81
2020/12/16 11:05:03;;;;;;;;;;;;;;;;;;5017051;28;767;-81
2020/12/16 11:07:29;;;;;;;;;;;;;;;;;;5015968;28;888;-81
2020/12/16 11:09:54;;;;;;;;;;;;;;;;;;5016834;28;882;-82
2020/12/16 11:12:19;;;;;;;;;;;;;;;;;;5016865;28;1398;-81
2020/12/16 11:14:44;;;;;;;;;;;;;;;;;;5017108;28;1891;-81
2020/12/16 11:17:10;;;;;;;;;;;;;;;;;;5016057;28;913;-82
2020/12/16 11:19:35;;;;;;;;;;;;;;;;;;5015574;28;1701;-82
2020/12/16 11:22:00;;;;;;;;;;;;;;;;;;5016848;28;1407;-82
2020/12/16 11:24:27;;;;;;;;;;;;;;;;;;5016835;28;924;-81
2020/12/16 11:26:52;;;;;;;;;;;;;;;;;;5016075;28;850;-82
2020/12/16 11:29:19;;;;;;;;;;;;;;;;;;5015774;28;1483;-82
2020/12/16 11:31:45;;;;;;;;;;;;;;;;;;5016640;28;1305;-81
2020/12/16 11:34:10;;;;;;;;;;;;;;;;;;5016364;28;932;-81
2020/12/16 11:36:38;;;;;;;;;;;;;;;;;;5016785;28;1948;-81
2020/12/16 11:39:03;;;;;;;;;;;;;;;;;;5016625;28;802;-82
2020/12/16 11:41:28;;;;;;;;;;;;;;;;;;5015057;28;1323;-82
2020/12/16 11:43:54;;;;;;;;;;;;;;;;;;5016472;28;949;-82
2020/12/16 11:46:19;;;;;;;;;;;;;;;;;;5015193;28;1083;-82
2020/12/16 11:48:45;;;;;;;;;;;;;;;;;;5016184;28;783;-82
2020/12/16 11:51:11;;;;;;;;;;;;;;;;;;5016265;28;1273;-82
2020/12/16 11:53:36;;;;;;;;;;;;;;;;;;5015312;28;886;-81
2020/12/16 11:56:01;;;;;;;;;;;;;;;;;;5014912;28;1926;-81
2020/12/16 11:58:29;;;;;;;;;;;;;;;;;;5014834;28;1271;-82
2020/12/16 12:00:54;;;;;;;;;;;;;;;;;;5016318;28;774;-81
2020/12/16 12:03:19;;;;;;;;;;;;;;;;;;5014811;28;1298;-80
2020/12/16 12:05:44;;;;;;;;;;;;;;;;;;5014752;28;831;-81
2020/12/16 12:08:10;;;;;;;;;;;;;;;;;;5015997;28;806;-82
2020/12/16 12:10:35;;;;;;;;;;;;;;;;;;5015917;28;782;-80
2020/12/16 12:13:00;;;;;;;;;;;;;;;;;;5016000;28;1412;-81
2020/12/16 12:15:25;;;;;;;;;;;;;;;;;;5015948;28;1957;-81
2020/12/16 12:17:51;;;;;;;;;;;;;;;;;;5015859;28;841;-82
2020/12/16 12:20:16;;;;;;;;;;;;;;;;;;5014342;28;2492;-82
2020/12/16 12:22:41;;;;;;;;;;;;;;;;;;5014508;28;1381;-82
2020/12/16 12:25:07;;;;;;;;;;;;;;;;;;5016535;28;1325;-82
2020/12/16 12:27:32;;;;;;;;;;;;;;;;;;5015778;28;850;-82
2020/12/16 12:29:57;;;;;;;;;;;;;;;;;;5014475;28;1208;-83
2020/12/16 12:32:22;;;;;;;;;;;;;;;;;;5014455;28;1291;-81
2020/12/16 12:34:48;;;;;;;;;;;;;;;;;;5015959;28;1938;-82
2020/12/16 12:37:13;;;;;;;;;;;;;;;;;;5014708;28;1436;-82
2020/12/16 12:39:38;;;;;;;;;;;;;;;;;;5015453;28;945;-82
2020/12/16 12:42:03;;;;;;;;;;;;;;;;;;5014744;28;1394;-83
2020/12/16 12:44:29;;;;;;;;;;;;;;;;;;5014105;28;905;-82
2020/12/16 12:46:54;;;;;;;;;;;;;;;;;;5015100;28;942;-84
2020/12/16 12:49:19;;;;;;;;;;;;;;;;;;5014323;28;1183;-83
2020/12/16 12:51:48;;;;;;;;;;;;;;;;;;5015292;28;1299;-82
2020/12/16 12:54:14;;;;;;;;;;;;;;;;;;5013980;28;870;-82
2020/12/16 12:56:39;;;;;;;;;;;;;;;;;;5013905;28;1965;-83
2020/12/16 12:59:04;;;;;;;;;;;;;;;;;;5013786;28;1371;-82
2020/12/16 13:01:29;;;;;;;;;;;;;;;;;;5014957;28;1437;-82
2020/12/16 13:03:55;;;;;;;;;;;;;;;;;;5014670;28;1331;-82
2020/12/16 13:06:20;;;;;;;;;;;;;;;;;;5013878;28;857;-82
2020/12/16 13:08:45;;;;;;;;;;;;;;;;;;5013787;28;1224;-82
2020/12/16 13:11:11;;;;;;;;;;;;;;;;;;5014248;28;1385;-82
2020/12/16 13:13:37;;;;;;;;;;;;;;;;;;5013810;28;1560;-82
2020/12/16 13:16:02;;;;;;;;;;;;;;;;;;5013635;28;1891;-82
2020/12/16 13:18:27;;;;;;;;;;;;;;;;;;5013723;28;1503;-82
2020/12/16 13:20:56;;;;;;;;;;;;;;;;;;5013439;28;1637;-82
2020/12/16 13:23:22;;;;;;;;;;;;;;;;;;5013668;28;1468;-82
2020/12/16 13:25:47;;;;;;;;;;;;;;;;;;5013728;28;814;-82
2020/12/16 13:28:13;;;;;;;;;;;;;;;;;;5013686;28;881;-82
2020/12/16 13:30:38;;;;;;;;;;;;;;;;;;5013395;28;1376;-82
2020/12/16 13:33:03;;;;;;;;;;;;;;;;;;5014698;28;1318;-82
2020/12/16 13:35:28;;;;;;;;;;;;;;;;;;5013700;28;1882;-82
2020/12/16 13:37:54;;;;;;;;;;;;;;;;;;5013441;28;925;-82
2020/12/16 13:40:19;;;;;;;;;;;;;;;;;;5013485;28;1298;-82
2020/12/16 13:42:44;;;;;;;;;;;;;;;;;;5013426;28;1304;-82
2020/12/16 13:45:09;;;;;;;;;;;;;;;;;;5013386;28;838;-82
2020/12/16 13:47:35;;;;;;;;;;;;;;;;;;5013271;28;1297;-82
2020/12/16 13:50:00;;;;;;;;;;;;;;;;;;5013485;28;1450;-82
2020/12/16 13:52:25;;;;;;;;;;;;;;;;;;5014570;28;1401;-82
2020/12/16 13:54:50;;;;;;;;;;;;;;;;;;5013298;28;1890;-82
2020/12/16 13:57:16;;;;;;;;;;;;;;;;;;5013323;28;1318;-82
2020/12/16 13:59:41;;;;;;;;;;;;;;;;;;5013218;28;1171;-82
2020/12/16 14:02:06;;;;;;;;;;;;;;;;;;5014761;28;1281;-84
2020/12/16 14:04:32;;;;;;;;;;;;;;;;;;5013913;28;1470;-85
2020/12/16 14:06:57;;;;;;;;;;;;;;;;;;5013152;28;1387;-85
2020/12/16 14:09:22;;;;;;;;;;;;;;;;;;5013242;28;1431;-84
2020/12/16 14:11:49;;;;;;;;;;;;;;;;;;5014220;28;1305;-84
2020/12/16 14:14:15;;;;;;;;;;;;;;;;;;5014448;28;914;-84
2020/12/16 14:16:40;;;;;;;;;;;;;;;;;;5014170;28;1957;-84
2020/12/16 14:19:05;;;;;;;;;;;;;;;;;;5013695;28;1264;-82
2020/12/16 14:21:30;;;;;;;;;;;;;;;;;;5013160;28;1281;-82
2020/12/16 14:23:56;;;;;;;;;;;;;;;;;;5017938;28;846;-84
2020/12/16 14:26:21;;;;;;;;;;;;;;;;;;5017209;28;1618;-84
2020/12/16 14:28:46;;;;;;;;;;;;;;;;;;5017986;28;838;-84
2020/12/16 14:31:12;;;;;;;;;;;;;;;;;;5017541;28;1393;-85
2020/12/16 14:33:39;;;;;;;;;;;;;;;;;;5018173;28;928;-84
2020/12/16 14:36:04;;;;;;;;;;;;;;;;;;5016378;28;1906;-84
2020/12/16 14:38:30;;;;;;;;;;;;;;;;;;5017790;28;849;-84
2020/12/16 14:40:55;;;;;;;;;;;;;;;;;;5016253;28;1216;-84
2020/12/16 14:43:20;;;;;;;;;;;;;;;;;;5016305;28;1383;-84
2020/12/16 14:45:46;;;;;;;;;;;;;;;;;;5016321;28;1471;-85
2020/12/16 14:48:12;;;;;;;;;;;;;;;;;;5016076;28;1108;-85
2020/12/16 14:50:37;;;;;;;;;;;;;;;;;;5016647;28;786;-84
2020/12/16 14:53:02;;;;;;;;;;;;;;;;;;5015512;28;1368;-84
2020/12/16 14:55:28;;;;;;;;;;;;;;;;;;5015528;28;1878;-84
2020/12/16 14:57:56;;;;;;;;;;;;;;;;;;5016759;28;1046;-84
2020/12/16 15:00:21;;;;;;;;;;;;;;;;;;5015355;28;1212;-84
2020/12/16 15:02:47;;;;;;;;;;;;;;;;;;5015401;28;1421;-84
2020/12/16 15:05:13;;;;;;;;;;;;;;;;;;5015468;28;664;-84
2020/12/16 15:07:38;;;;;;;;;;;;;;;;;;5015388;28;888;-84
2020/12/16 15:10:04;;;;;;;;;;;;;;;;;;5016493;28;941;-82
2020/12/16 15:12:29;;;;;;;;;;;;;;;;;;5016659;28;1302;-82
2020/12/16 15:14:55;;;;;;;;;;;;;;;;;;5015017;28;1961;-82
2020/12/16 15:17:21;;;;;;;;;;;;;;;;;;5015328;28;889;-82
2020/12/16 15:19:46;;;;;;;;;;;;;;;;;;5014997;28;1150;-82
2020/12/16 15:22:11;;;;;;;;;;;;;;;;;;5016276;28;1304;-84
2020/12/16 15:24:37;;;;;;;;;;;;;;;;;;5016347;28;921;-85
2020/12/16 15:27:02;;;;;;;;;;;;;;;;;;5015090;28;854;-84
2020/12/16 15:29:28;;;;;;;;;;;;;;;;;;5014823;28;822;-85
2020/12/16 15:31:54;;;;;;;;;;;;;;;;;;5014716;28;1462;-84
2020/12/16 15:34:20;;;;;;;;;;;;;;;;;;5014299;28;1192;-85
2020/12/16 15:36:49;;;;;;;;;;;;;;;;;;5014758;28;1940;-84
2020/12/16 15:39:14;;;;;;;;;;;;;;;;;;5014719;28;1225;-85
2020/12/16 15:41:39;;;;;;;;;;;;;;;;;;5015791;28;1296;-84
2020/12/16 15:44:05;;;;;;;;;;;;;;;;;;5016061;28;779;-84
2020/12/16 15:46:30;;;;;;;;;;;;;;;;;;5015839;28;866;-84
2020/12/16 15:48:56;;;;;;;;;;;;;;;;;;5015905;28;929;-85
2020/12/16 15:51:21;;;;;;;;;;;;;;;;;;5015755;28;1347;-85
2020/12/16 15:53:46;;;;;;;;;;;;;;;;;;5014834;28;1241;-84
2020/12/16 15:56:12;;;;;;;;;;;;;;;;;;5014221;28;1878;-84
2020/12/16 15:58:42;;;;;;;;;;;;;;;;;;5016741;28;1259;-84
2020/12/16 16:01:08;;;;;;;;;;;;;;;;;;5024168;28;1424;-84
2020/12/16 16:03:34;;;;;;;;;;;;;;;;;;5025293;28;1422;-84
2020/12/16 16:06:00;;;;;;;;;;;;;;;;;;5034072;28;1253;-84
2020/12/16 16:08:25;;;;;;;;;;;;;;;;;;5034110;28;822;-85
2020/12/16 16:10:50;;;;;;;;;;;;;;;;;;5050480;28;1474;-84
2020/12/16 16:13:15;;;;;;;;;;;;;;;;;;5034045;28;1367;-84
2020/12/16 16:15:40;;;;;;;;;;;;;;;;;;5034966;28;1882;-84
2020/12/16 16:18:06;;;;;;;;;;;;;;;;;;5033845;28;1102;-84
2020/12/16 16:20:31;;;;;;;;;;;;;;;;;;5035046;28;864;-85
2020/12/16 16:22:56;;;;;;;;;;;;;;;;;;5050261;28;1445;-84
2020/12/16 16:25:22;;;;;;;;;;;;;;;;;;5034136;28;881;-84
2020/12/16 16:27:47;;;;;;;;;;;;;;;;;;5050233;28;987;-84
2020/12/16 16:30:12;;;;;;;;;;;;;;;;;;5050491;28;921;-84
2020/12/16 16:32:37;;;;;;;;;;;;;;;;;;5050098;28;1350;-84
2020/12/16 16:35:07;;;;;;;;;;;;;;;;;;5034826;28;1894;-84
2020/12/16 16:37:32;;;;;;;;;;;;;;;;;;5033602;28;1231;-84
2020/12/16 16:39:58;;;;;;;;;;;;;;;;;;5049853;28;1297;-83
2020/12/16 16:42:24;;;;;;;;;;;;;;;;;;5034820;28;1291;-84
2020/12/16 16:44:50;;;;;;;;;;;;;;;;;;5033490;28;949;-84
2020/12/16 16:47:15;;;;;;;;;;;;;;;;;;5033291;28;1165;-84
2020/12/16 16:49:41;;;;;;;;;;;;;;;;;;5035585;28;778;-84
2020/12/16 16:52:06;;;;;;;;;;;;;;;;;;5034932;28;1403;-84
2020/12/16 16:54:31;;;;;;;;;;;;;;;;;;5033411;28;1507;-84
2020/12/16 16:56:57;;;;;;;;;;;;;;;;;;5033003;28;1897;-84
2020/12/16 16:59:22;;;;;;;;;;;;;;;;;;5033081;28;1157;-84
2020/12/16 17:01:48;;;;;;;;;;;;;;;;;;5032854;28;1412;-84